Portada
METAR-TAF:

METAR-TAF

Aeroports :

Meridian Regional Airport (Key Field)

Meridian, Mississipí, Estats Units d'Amèrica

latitud: 32-20-17N, longitud: 088-44-52W, altitud: 90 m

Observació

L'informe es va fer fa 1 hora i 9 minuts, a les 07:58 UTC
Vent calma
Temperatura -2°C
Humitat 74%
Pressió 1030 hPa
Visibilitat: 16.1 km
Cel clar

METAR: KMEI 220758Z AUTO 00000KT 10SM CLR M02/M06 A3041 RMK AO2 SLP297 T10221061 $

Hora: 03:07 (09:07 UTC)

Pronòstic

L'informe es va fer fa 3 hores i 26 minuts, a les 05:41 UTC
Pronòstic vàlid del 22 a les 06 UTC al 23 a les 06 UTC
Vent 4 kt del Est
Visibilitat: 10 km
Cel ennuvolat a una alçada de 25000 ft

TAF: KMEI 220541Z 2206/2306 10004KT P6SM BKN250

Observacions i pronòstics meteorològics de més de 4000 aeroports (METAR i TAF).

Les estacions disponibles són els punts grocs i vermells al mapa.

Posi el ratolí al punt desitjat per veure el nom de l'estació.

Feu clic per veure les observacions i els pronòstics meteorològics.

Per canviar el mapa: feu clic els botons verds amb una creu de color negre per apropar; al botó verd amb un guió per allunyar la imatge; o en les fletxes verdes per a mapes adjacents.


METAR-TAF: